createdAt,value
2019-05-12T13:30:01.905Z,13.60
2019-05-12T13:32:32.136Z,12.90
2019-05-12T13:34:55.122Z,13.10
2019-05-12T13:37:23.212Z,13.70
2019-05-12T13:39:56.820Z,14.50
2019-05-12T13:42:17.891Z,15.20
2019-05-12T13:44:45.470Z,16.40
2019-05-12T13:47:14.033Z,16.30
2019-05-12T13:49:44.670Z,17.30
2019-05-12T13:52:08.246Z,17.20
2019-05-12T13:54:35.808Z,17.90
2019-05-12T13:57:11.581Z,18.60
2019-05-12T13:59:30.952Z,17.50
2019-05-12T14:01:58.519Z,15.60
2019-05-12T14:04:27.810Z,14.90
2019-05-12T14:06:53.668Z,14.00
2019-05-12T14:09:21.203Z,13.70
2019-05-12T14:11:48.773Z,13.80
2019-05-12T14:14:16.324Z,15.30
2019-05-12T14:16:52.447Z,16.40
2019-05-12T14:19:11.478Z,17.20
2019-05-12T14:21:41.025Z,16.90
2019-05-12T14:24:07.616Z,17.60
2019-05-12T14:26:39.382Z,16.80
2019-05-12T14:29:03.999Z,17.30
2019-05-12T14:31:36.380Z,18.10
2019-05-12T14:34:00.564Z,19.90
2019-05-12T14:36:28.099Z,19.80
2019-05-12T14:39:00.380Z,20.20
2019-05-12T14:41:26.498Z,18.80
2019-05-12T14:43:53.611Z,19.20
2019-05-12T14:46:18.611Z,17.10
2019-05-12T14:48:50.310Z,15.20
2019-05-12T14:51:14.796Z,14.50
2019-05-12T14:53:46.102Z,14.20
2019-05-12T14:56:09.960Z,13.60
2019-05-12T14:58:37.532Z,13.10
2019-05-12T15:01:05.852Z,13.20
2019-05-12T15:03:34.226Z,13.20
2019-05-12T15:06:01.004Z,17.20
2019-05-12T15:08:36.126Z,19.30
2019-05-12T15:10:56.176Z,18.10
2019-05-12T15:13:24.114Z,19.70
2019-05-12T15:15:58.015Z,19.30
2019-05-12T15:18:18.927Z,20.40
2019-05-12T15:20:49.856Z,18.40
2019-05-12T15:23:14.504Z,16.60
2019-05-12T15:25:43.256Z,16.00
2019-05-12T15:28:09.300Z,14.60
2019-05-12T15:30:36.855Z,14.30
2019-05-12T15:33:04.696Z,14.10
2019-05-12T15:35:34.371Z,18.40
2019-05-12T15:38:03.481Z,18.40
2019-05-12T15:40:29.751Z,20.70
2019-05-12T15:43:00.389Z,20.70
2019-05-12T15:45:24.896Z,18.40
2019-05-12T15:47:53.549Z,16.30
2019-05-12T15:50:20.039Z,15.30
2019-05-12T15:52:47.572Z,14.60
2019-05-12T15:55:18.099Z,14.10
2019-05-12T15:57:43.973Z,13.70
2019-05-12T16:00:10.367Z,13.70
2019-05-12T16:02:37.940Z,14.10
2019-05-12T16:05:05.504Z,16.00
2019-05-12T16:07:37.897Z,18.50
2019-05-12T16:10:00.641Z,19.10
2019-05-12T16:12:28.207Z,17.90
2019-05-12T16:14:55.775Z,16.30
2019-05-12T16:17:24.890Z,14.80
2019-05-12T16:19:50.926Z,14.60
2019-05-12T16:22:18.485Z,14.30
2019-05-12T16:24:48.984Z,13.90
2019-05-12T16:27:14.653Z,13.50
2019-05-12T16:29:45.618Z,13.20
2019-05-12T16:32:26.048Z,13.30
2019-05-12T16:34:44.907Z,13.30
2019-05-12T16:37:07.560Z,13.30
2019-05-12T16:39:37.058Z,13.10
2019-05-12T16:42:08.314Z,13.30
2019-05-12T16:44:31.291Z,13.30
2019-05-12T16:46:58.852Z,13.30
2019-05-12T16:49:33.215Z,13.10
2019-05-12T16:51:54.281Z,13.00
2019-05-12T16:54:24.003Z,13.40
2019-05-12T16:56:49.232Z,13.30
2019-05-12T16:59:21.848Z,13.10
2019-05-12T17:01:45.387Z,13.40
2019-05-12T17:04:13.422Z,13.10
2019-05-12T17:06:40.548Z,13.00
2019-05-12T17:09:08.856Z,12.90
2019-05-12T17:11:37.316Z,12.90
2019-05-12T17:14:04.896Z,13.30
2019-05-12T17:16:35.356Z,13.60
2019-05-12T17:19:05.368Z,13.90
2019-05-12T17:21:27.624Z,13.80
2019-05-12T17:23:55.208Z,13.80
2019-05-12T17:26:24.311Z,13.70
2019-05-12T17:28:50.494Z,13.60
2019-05-12T17:31:18.065Z,13.70
2019-05-12T17:33:45.607Z,13.70
2019-05-12T17:36:17.602Z,13.60
2019-05-12T17:38:44.011Z,13.60
2019-05-12T17:41:09.892Z,13.50
2019-05-12T17:43:45.021Z,13.20
2019-05-12T17:46:06.057Z,13.30
2019-05-12T17:48:37.147Z,13.20
2019-05-12T17:51:03.158Z,13.20
2019-05-12T17:53:30.437Z,13.30
2019-05-12T17:55:56.427Z,13.10
2019-05-12T17:58:24.381Z,13.00
2019-05-12T18:00:52.043Z,12.80
2019-05-12T18:03:22.100Z,12.80
2019-05-12T18:05:48.056Z,13.00
2019-05-12T18:08:14.454Z,12.90
2019-05-12T18:10:43.687Z,12.70
2019-05-12T18:13:17.546Z,12.60
2019-05-12T18:15:38.051Z,12.60
2019-05-12T18:18:05.582Z,12.60
2019-05-12T18:20:40.006Z,12.60
2019-05-12T18:23:00.796Z,12.70
2019-05-12T18:25:32.377Z,12.60
2019-05-12T18:27:55.939Z,12.80
2019-05-12T18:30:23.922Z,13.00
2019-05-12T18:32:54.982Z,12.60
2019-05-12T18:35:20.236Z,12.40
2019-05-12T18:37:48.079Z,12.40
2019-05-12T18:40:15.659Z,12.20
2019-05-12T18:42:43.230Z,12.00
2019-05-12T18:45:12.470Z,11.90
2019-05-12T18:47:38.404Z,11.80
2019-05-12T18:50:05.944Z,11.60
2019-05-12T18:52:37.704Z,11.60
2019-05-12T18:55:01.104Z,11.40
2019-05-12T18:57:28.671Z,11.40
2019-05-12T19:00:03.417Z,11.30
2019-05-12T19:02:28.357Z,11.20
2019-05-12T19:04:53.502Z,11.20
2019-05-12T19:07:19.040Z,11.20
2019-05-12T19:09:47.409Z,11.20
2019-05-12T19:12:20.896Z,11.10
2019-05-12T19:14:44.775Z,11.00
2019-05-12T19:17:14.140Z,10.90
2019-05-12T19:19:40.682Z,10.90
2019-05-12T19:22:09.608Z,10.80
2019-05-12T19:24:36.367Z,10.70
2019-05-12T19:27:04.421Z,10.60
2019-05-12T19:29:38.808Z,10.60
2019-05-12T19:32:00.495Z,10.50
2019-05-12T19:34:31.931Z,10.50
2019-05-12T19:36:56.431Z,10.40
2019-05-12T19:39:25.414Z,10.40
2019-05-12T19:41:54.164Z,10.30
2019-05-12T19:44:20.125Z,10.30
2019-05-12T19:46:49.481Z,10.20
2019-05-12T19:49:14.543Z,10.10
2019-05-12T19:51:43.799Z,10.00
2019-05-12T19:54:10.491Z,9.70
2019-05-12T19:56:39.551Z,9.60
2019-05-12T19:59:05.667Z,9.30
2019-05-12T20:01:34.514Z,9.10
2019-05-12T20:04:03.406Z,9.00
2019-05-12T20:06:28.400Z,8.80
2019-05-12T20:09:06.202Z,8.80
2019-05-12T20:11:29.352Z,8.70
2019-05-12T20:13:53.801Z,8.80
2019-05-12T20:16:21.918Z,8.70
2019-05-12T20:18:49.247Z,8.60
2019-05-12T20:21:14.692Z,8.60
2019-05-12T20:23:43.871Z,8.60
2019-05-12T20:26:10.808Z,8.50
2019-05-12T20:28:42.148Z,8.30
2019-05-12T20:31:06.715Z,8.30
2019-05-12T20:33:34.462Z,8.20
2019-05-12T20:36:03.962Z,8.10
2019-05-12T20:38:34.081Z,8.10
2019-05-12T20:40:58.255Z,8.00
2019-05-12T20:43:32.200Z,7.80
2019-05-12T20:45:53.402Z,7.70
2019-05-12T20:48:29.201Z,7.60
2019-05-12T20:50:49.516Z,7.50
2019-05-12T20:53:17.055Z,7.40
2019-05-12T20:55:44.583Z,7.20
2019-05-12T20:58:13.671Z,7.20
2019-05-12T21:00:45.612Z,7.10
2019-05-12T21:03:08.311Z,7.10
2019-05-12T21:05:35.886Z,7.00
2019-05-12T21:08:11.404Z,7.10
2019-05-12T21:10:31.024Z,7.10
2019-05-12T21:12:58.613Z,7.00
2019-05-12T21:15:27.454Z,7.10
2019-05-12T21:18:02.949Z,6.90
2019-05-12T21:20:24.314Z,6.80
2019-05-12T21:22:49.700Z,6.80
2019-05-12T21:25:17.245Z,6.70
2019-05-12T21:27:47.627Z,6.70
2019-05-12T21:30:15.127Z,6.70
2019-05-12T21:32:40.761Z,6.70
2019-05-12T21:35:18.172Z,6.80
2019-05-12T21:37:37.017Z,6.70
2019-05-12T21:40:06.031Z,6.70
2019-05-12T21:42:31.094Z,6.70
2019-05-12T21:44:58.668Z,6.70
2019-05-12T21:47:27.000Z,6.70
2019-05-12T21:49:57.686Z,6.70
2019-05-12T21:52:23.856Z,6.60
2019-05-12T21:54:49.740Z,6.60
2019-05-12T21:57:19.122Z,6.50
2019-05-12T21:59:44.876Z,6.40
2019-05-12T22:02:14.121Z,6.30
2019-05-12T22:04:41.669Z,6.20
2019-05-12T22:07:07.888Z,6.30
2019-05-12T22:09:41.758Z,6.40
2019-05-12T22:12:03.766Z,6.40
2019-05-12T22:14:38.667Z,6.20
2019-05-12T22:16:58.292Z,6.20
2019-05-12T22:19:30.756Z,6.30
2019-05-12T22:21:53.752Z,6.20
2019-05-12T22:24:27.542Z,6.20
2019-05-12T22:26:50.169Z,6.10
2019-05-12T22:29:21.176Z,6.10
2019-05-12T22:31:48.215Z,5.90
2019-05-12T22:34:12.906Z,5.90
2019-05-12T22:36:45.369Z,5.90
2019-05-12T22:39:08.073Z,5.90
2019-05-12T22:41:41.092Z,5.80
2019-05-12T22:44:03.231Z,5.80
2019-05-12T22:46:32.961Z,5.70
2019-05-12T22:48:58.434Z,5.60
2019-05-12T22:51:26.945Z,5.60
2019-05-12T22:53:53.904Z,5.70
2019-05-12T22:56:23.597Z,5.80
2019-05-12T22:58:51.986Z,5.80
2019-05-12T23:01:16.363Z,5.80
2019-05-12T23:03:51.361Z,5.80
2019-05-12T23:06:23.287Z,5.80
2019-05-12T23:08:47.124Z,5.60
2019-05-12T23:11:06.714Z,5.60
2019-05-12T23:13:40.961Z,5.60
2019-05-12T23:16:03.404Z,5.70
2019-05-12T23:18:31.000Z,5.60
2019-05-12T23:21:03.999Z,5.60
2019-05-12T23:23:26.968Z,5.70
2019-05-12T23:26:00.309Z,5.70
2019-05-12T23:28:22.117Z,5.70
2019-05-12T23:30:50.210Z,5.80
2019-05-12T23:33:17.261Z,5.70
2019-05-12T23:35:44.825Z,5.80
2019-05-12T23:38:18.691Z,5.90
2019-05-12T23:40:39.957Z,5.90
2019-05-12T23:43:07.533Z,5.70
2019-05-12T23:45:35.102Z,5.70
2019-05-12T23:48:03.955Z,5.60
2019-05-12T23:50:31.001Z,5.60
2019-05-12T23:52:58.533Z,5.70
2019-05-12T23:55:26.207Z,5.50
2019-05-12T23:57:53.821Z,5.50
